KGGG/GGG METAR and TAF weather

Enter ICAO airport designator
Station Type Date Time Source
KGGG METAR 2024/04/17 18:53 UTC NOAA

KGGG 171853Z 10008KT 10SM FEW034 FEW041 SCT048 30/21 A2996 RMK AO2 SLP138 T03000206


Station Type Date Time Source
KGGG Decoded METAR 2024/04/17 18:53 UTC NOAA

LONGVIEW GREGG COUNTY AIRPORT , TX, United States (KGGG) 32-23N 094-43W 107M
Apr 17, 2024 - 02:53 PM EDT / 2024.04.17 1853 UTC
Wind: from the E (100 degrees) at 9 MPH (8 KT):0
Visibility: 10 mile(s):0
Sky conditions: partly cloudy
Temperature: 86.0 F (30.0 C)
Dew Point: 69.1 F (20.6 C)
Relative Humidity: 57%
Pressure (altimeter): 29.96 in. Hg (1014 hPa)
ob: KGGG 171853Z 10008KT 10SM FEW034 FEW041 SCT048 30/21 A2996 RMK AO2 SLP138 T03000206
cycle: 19

Station Type Date Time Source
KGGG TAF 2024/04/17 18:22 UTC NOAA